Prestwick, United Kingdom
Current Conditions -  °F | °C
As of 11:50 AM on Tuesday 21 Oct 2014 (Local Time) from EGPK Reporting Station
Rain Showers Rain Showers  
Wind Chill: 37°   Ceiling: Unl
Heat Index: 46°   Visibility: 6mi
Dew Point: 41°   Wind: 29mph
Humidity: 81%   Direction: 300°WNW
Pressure: 29.5"   Gusts: 41mph
Location:  55.48°N, 4.62°W
Report Text: EGPK 211050Z 30025G36KT 9999 VCSH FEW020 SCT030 08/05 Q0999 RESHRA
Loading
Personal Weather Stations






























Interactive Weather Map New forecast layout! Learn more

10-Day Weather Forecast

Advertisements
Track Severe Weather on mobile